createdAt,value
2023-10-20T00:00:07.706Z,21.23
2023-10-20T00:02:35.714Z,21.55
2023-10-20T00:05:05.287Z,22.67
2023-10-20T00:07:33.052Z,22.10
2023-10-20T00:10:01.287Z,21.17
2023-10-20T00:12:28.866Z,25.10
2023-10-20T00:14:57.251Z,20.38
2023-10-20T00:17:25.011Z,21.25
2023-10-20T00:19:52.588Z,21.50
2023-10-20T00:22:20.545Z,22.52
2023-10-20T00:24:48.023Z,18.90
2023-10-20T00:27:15.681Z,21.30
2023-10-20T00:29:43.258Z,18.85
2023-10-20T00:32:12.104Z,22.85
2023-10-20T00:34:39.915Z,19.17
2023-10-20T00:37:08.098Z,19.80
2023-10-20T00:39:36.408Z,19.13
2023-10-20T00:42:04.399Z,19.40
2023-10-20T00:44:32.374Z,20.55
2023-10-20T00:47:00.404Z,19.90
2023-10-20T00:49:28.015Z,22.07
2023-10-20T00:51:55.916Z,19.43
2023-10-20T00:54:23.472Z,18.67
2023-10-20T00:56:51.081Z,17.05
2023-10-20T00:59:18.757Z,21.27
2023-10-20T01:01:46.835Z,19.75
2023-10-20T01:04:14.488Z,16.53
2023-10-20T01:06:44.553Z,17.83
2023-10-20T01:09:12.135Z,20.25
2023-10-20T01:11:40.145Z,21.38
2023-10-20T01:14:08.169Z,18.92
2023-10-20T01:16:35.783Z,15.90
2023-10-20T01:19:03.322Z,21.23
2023-10-20T01:21:30.950Z,19.45
2023-10-20T01:23:58.725Z,21.38
2023-10-20T01:26:26.998Z,19.48
2023-10-20T01:28:54.980Z,18.87
2023-10-20T01:31:24.039Z,18.40
2023-10-20T01:33:51.938Z,15.63
2023-10-20T01:36:19.565Z,18.17
2023-10-20T01:38:47.169Z,20.83
2023-10-20T01:41:14.726Z,22.97
2023-10-20T01:43:44.546Z,20.52
2023-10-20T01:46:12.164Z,19.38
2023-10-20T01:48:39.708Z,21.20
2023-10-20T01:51:07.316Z,22.67
2023-10-20T01:53:34.878Z,15.13
2023-10-20T01:56:02.551Z,17.85
2023-10-20T01:58:30.173Z,18.40
2023-10-20T02:00:57.764Z,19.55
2023-10-20T02:03:26.137Z,14.90
2023-10-20T02:05:53.934Z,22.40
2023-10-20T02:08:21.619Z,18.60
2023-10-20T02:10:49.218Z,18.23
2023-10-20T02:13:16.991Z,17.20
2023-10-20T02:15:52.062Z,21.55
2023-10-20T02:18:19.718Z,19.13
2023-10-20T02:21:05.544Z,18.40
2023-10-20T02:23:33.841Z,20.40
2023-10-20T02:26:08.695Z,19.42
2023-10-20T02:28:39.421Z,17.95
2023-10-20T02:31:15.324Z,18.88
2023-10-20T02:33:43.157Z,16.85
2023-10-20T02:36:10.703Z,23.50
2023-10-20T02:38:38.333Z,18.48
2023-10-20T02:41:06.455Z,19.13
2023-10-20T02:43:34.074Z,19.58
2023-10-20T02:46:02.132Z,17.30
2023-10-20T02:48:32.176Z,17.93
2023-10-20T02:51:08.485Z,20.90
2023-10-20T02:53:36.204Z,20.13
2023-10-20T02:56:14.271Z,17.60
2023-10-20T02:58:44.600Z,18.70
2023-10-20T03:01:17.272Z,21.47
2023-10-20T03:03:45.845Z,17.73
2023-10-20T03:06:13.671Z,16.30
2023-10-20T03:08:42.044Z,17.30
2023-10-20T03:11:10.740Z,21.17
2023-10-20T03:13:39.057Z,17.63
2023-10-20T03:16:07.343Z,18.23
2023-10-20T03:18:34.992Z,19.58
2023-10-20T03:21:03.755Z,15.38
2023-10-20T03:23:31.957Z,21.73
2023-10-20T03:25:59.782Z,20.03
2023-10-20T03:28:27.916Z,18.73
2023-10-20T03:30:55.685Z,20.27
2023-10-20T03:33:23.800Z,22.73
2023-10-20T03:36:02.582Z,22.05
2023-10-20T03:38:30.624Z,23.10
2023-10-20T03:41:11.546Z,21.00
2023-10-20T03:43:39.514Z,22.60
2023-10-20T03:46:07.144Z,20.67
2023-10-20T03:48:36.903Z,20.45
2023-10-20T03:51:08.957Z,21.87
2023-10-20T03:53:51.775Z,19.33
2023-10-20T03:56:23.889Z,22.13
2023-10-20T03:58:52.247Z,25.27
2023-10-20T04:01:20.834Z,21.02
2023-10-20T04:03:52.865Z,22.27
2023-10-20T04:06:23.675Z,22.98
2023-10-20T04:08:51.366Z,20.02
2023-10-20T04:11:19.191Z,27.10
2023-10-20T04:13:47.262Z,18.35
2023-10-20T04:16:15.608Z,23.33
2023-10-20T04:18:45.583Z,20.50
2023-10-20T04:21:13.627Z,21.27
2023-10-20T04:23:45.434Z,22.02
2023-10-20T04:26:21.727Z,22.40
2023-10-20T04:29:09.443Z,19.33
2023-10-20T04:31:55.827Z,25.15
2023-10-20T04:34:42.140Z,25.52
2023-10-20T04:37:29.459Z,26.63
2023-10-20T04:40:15.840Z,25.13
2023-10-20T04:42:53.966Z,26.53
2023-10-20T04:45:25.041Z,20.55
2023-10-20T04:48:12.101Z,20.42
2023-10-20T04:50:59.940Z,21.88
2023-10-20T04:53:46.026Z,23.90
2023-10-20T04:56:16.637Z,18.90
2023-10-20T04:58:51.040Z,27.02
2023-10-20T05:01:25.734Z,24.60
2023-10-20T05:03:59.102Z,27.27
2023-10-20T05:06:27.994Z,26.52
2023-10-20T05:08:55.686Z,29.63
2023-10-20T05:11:23.466Z,26.58
2023-10-20T05:13:51.387Z,22.05
2023-10-20T05:16:18.971Z,24.48
2023-10-20T05:18:46.614Z,23.75
2023-10-20T05:21:15.115Z,33.67
2023-10-20T05:23:42.922Z,22.58
2023-10-20T05:26:11.148Z,26.70
2023-10-20T05:28:38.867Z,25.83
2023-10-20T05:31:06.583Z,45.20
2023-10-20T05:33:34.445Z,40.57
2023-10-20T05:36:05.119Z,31.75
2023-10-20T05:38:33.426Z,31.08
2023-10-20T05:41:01.740Z,26.55
2023-10-20T05:43:31.606Z,31.10
2023-10-20T05:46:03.792Z,31.67
2023-10-20T05:48:32.330Z,28.20
2023-10-20T05:51:00.012Z,22.30
2023-10-20T05:53:29.864Z,24.70
2023-10-20T05:55:59.153Z,23.40
2023-10-20T05:58:26.779Z,22.40
2023-10-20T06:01:03.065Z,23.45
2023-10-20T06:03:32.391Z,25.52
2023-10-20T06:06:01.901Z,23.15
2023-10-20T06:08:30.470Z,24.85
2023-10-20T06:11:06.467Z,22.10
2023-10-20T06:13:36.711Z,20.65
2023-10-20T06:16:11.003Z,25.25
2023-10-20T06:18:41.419Z,21.20
2023-10-20T06:21:18.496Z,23.80
2023-10-20T06:23:49.726Z,20.53
2023-10-20T06:26:17.621Z,26.47
2023-10-20T06:28:48.308Z,20.55
2023-10-20T06:31:34.451Z,23.23
2023-10-20T06:34:14.437Z,28.92
2023-10-20T06:36:48.625Z,25.85
2023-10-20T06:39:20.349Z,30.60
2023-10-20T06:41:48.873Z,28.17
2023-10-20T06:44:21.086Z,23.40
2023-10-20T06:46:52.609Z,28.83
2023-10-20T06:49:20.624Z,24.35
2023-10-20T06:51:49.465Z,24.50
2023-10-20T06:54:20.726Z,27.65
2023-10-20T06:56:48.356Z,24.83
2023-10-20T06:59:22.559Z,20.15
2023-10-20T07:01:52.390Z,25.27
2023-10-20T07:04:20.660Z,26.13
2023-10-20T07:06:48.345Z,34.40
2023-10-20T07:09:15.945Z,24.15
2023-10-20T07:11:45.143Z,34.30
2023-10-20T07:14:13.079Z,26.23
2023-10-20T07:16:40.897Z,33.60
2023-10-20T07:19:08.837Z,28.45
2023-10-20T07:21:36.702Z,31.58
2023-10-20T07:24:04.577Z,36.00
2023-10-20T07:26:32.211Z,35.20
2023-10-20T07:28:59.929Z,32.37
2023-10-20T07:31:27.890Z,27.73
2023-10-20T07:33:55.596Z,26.83
2023-10-20T07:36:23.287Z,19.70
2023-10-20T07:38:51.097Z,26.98
2023-10-20T07:41:18.824Z,23.50
2023-10-20T07:43:46.547Z,25.13
2023-10-20T07:46:18.523Z,22.30
2023-10-20T07:48:46.752Z,34.22
2023-10-20T07:51:14.585Z,24.38
2023-10-20T07:53:42.254Z,26.73
2023-10-20T07:56:10.127Z,23.80
2023-10-20T07:58:38.250Z,22.67
2023-10-20T08:01:07.850Z,24.02
2023-10-20T08:03:35.914Z,22.33
2023-10-20T08:06:04.732Z,19.13
2023-10-20T08:08:34.067Z,19.93
2023-10-20T08:11:06.679Z,22.80
2023-10-20T08:13:39.214Z,19.92
2023-10-20T08:16:08.360Z,22.45
2023-10-20T08:18:37.077Z,23.67
2023-10-20T08:21:09.590Z,23.83
2023-10-20T08:23:41.045Z,21.63
2023-10-20T08:26:16.098Z,24.75
2023-10-20T08:28:44.168Z,20.88
2023-10-20T08:31:18.212Z,22.35
2023-10-20T08:33:46.015Z,20.23
2023-10-20T08:36:17.486Z,21.83
2023-10-20T08:38:48.639Z,23.67
2023-10-20T08:41:18.620Z,21.95
2023-10-20T08:43:47.345Z,22.27
2023-10-20T08:46:17.519Z,22.67
2023-10-20T08:48:46.874Z,23.17
2023-10-20T08:51:18.278Z,19.17
2023-10-20T08:53:47.498Z,21.45
2023-10-20T08:56:16.176Z,24.70
2023-10-20T08:58:48.037Z,24.03
2023-10-20T09:01:18.455Z,24.73
2023-10-20T09:03:50.145Z,26.23
2023-10-20T09:06:18.153Z,22.13
2023-10-20T09:08:52.532Z,24.50
2023-10-20T09:14:00.703Z,22.17
2023-10-20T09:16:28.530Z,19.40
2023-10-20T09:18:56.428Z,22.38
2023-10-20T09:21:26.951Z,22.02
2023-10-20T09:24:01.935Z,23.40
2023-10-20T09:26:32.025Z,18.33
2023-10-20T09:29:00.044Z,19.70
2023-10-20T09:31:29.903Z,23.27
2023-10-20T09:33:57.580Z,27.25
2023-10-20T09:36:26.053Z,29.25
2023-10-20T09:38:55.624Z,27.60
2023-10-20T09:41:25.629Z,22.35
2023-10-20T09:44:01.763Z,24.00
2023-10-20T09:46:29.497Z,24.13
2023-10-20T09:49:01.413Z,20.05
2023-10-20T09:51:29.020Z,25.43
2023-10-20T09:53:57.888Z,18.37
2023-10-20T09:56:26.170Z,16.80
2023-10-20T09:59:03.465Z,23.38
2023-10-20T10:01:32.392Z,19.42
2023-10-20T10:04:10.003Z,24.60
2023-10-20T10:06:38.632Z,19.07
2023-10-20T10:09:06.997Z,23.75
2023-10-20T10:11:44.495Z,21.27
2023-10-20T10:14:22.800Z,20.50
2023-10-20T10:16:55.362Z,20.90
2023-10-20T10:19:28.312Z,23.57
2023-10-20T10:22:00.986Z,21.37
2023-10-20T10:24:33.022Z,19.40
2023-10-20T10:27:06.035Z,19.50
2023-10-20T10:29:50.794Z,21.20
2023-10-20T10:32:21.029Z,21.08
2023-10-20T10:34:55.696Z,20.43
2023-10-20T10:37:36.526Z,26.02
2023-10-20T10:40:15.563Z,20.58
2023-10-20T10:43:00.911Z,19.92
2023-10-20T10:45:32.920Z,21.45
2023-10-20T10:48:12.750Z,22.37
2023-10-20T10:50:44.698Z,19.83
2023-10-20T10:53:14.459Z,22.42
2023-10-20T10:55:44.256Z,23.35
2023-10-20T10:58:16.238Z,23.88
2023-10-20T11:00:46.109Z,27.77
2023-10-20T11:03:15.772Z,26.38
2023-10-20T11:05:44.290Z,26.63
2023-10-20T11:08:14.986Z,29.80
2023-10-20T11:10:47.874Z,24.73
2023-10-20T11:13:17.729Z,26.77
2023-10-20T11:15:51.574Z,22.83
2023-10-20T11:18:22.023Z,24.45
2023-10-20T11:20:50.997Z,25.63
2023-10-20T11:23:35.581Z,19.67
2023-10-20T11:26:04.046Z,24.10
2023-10-20T11:28:31.640Z,22.13
2023-10-20T11:30:59.617Z,26.25
2023-10-20T11:33:33.162Z,20.80
2023-10-20T11:36:04.833Z,29.77
2023-10-20T11:38:33.587Z,26.02
2023-10-20T11:41:01.717Z,23.67
2023-10-20T11:43:29.506Z,26.90
2023-10-20T11:46:00.195Z,30.08
2023-10-20T11:48:28.177Z,21.27
2023-10-20T11:50:56.014Z,23.63
2023-10-20T11:53:23.825Z,33.07
2023-10-20T11:55:53.427Z,25.42
2023-10-20T11:58:21.059Z,29.08
2023-10-20T12:00:49.083Z,29.20
2023-10-20T12:03:16.886Z,22.52
2023-10-20T12:05:44.567Z,25.97
2023-10-20T12:08:12.228Z,24.38
2023-10-20T12:10:40.811Z,26.45
2023-10-20T12:13:08.631Z,24.17
2023-10-20T12:15:52.592Z,19.67
2023-10-20T12:18:20.383Z,28.00
2023-10-20T12:20:48.853Z,25.85
2023-10-20T12:23:19.025Z,26.75
2023-10-20T12:25:46.966Z,20.52
2023-10-20T12:28:14.617Z,22.42
2023-10-20T12:30:42.437Z,25.40
2023-10-20T12:33:10.296Z,27.00
2023-10-20T12:35:38.092Z,27.95
2023-10-20T12:38:07.763Z,26.65
2023-10-20T12:40:35.936Z,24.15
2023-10-20T12:43:07.243Z,26.42
2023-10-20T12:45:37.912Z,23.33
2023-10-20T12:48:09.747Z,24.20
2023-10-20T12:50:37.788Z,27.08
2023-10-20T12:53:06.089Z,22.92
2023-10-20T12:55:33.733Z,21.58
2023-10-20T12:58:03.764Z,26.63
2023-10-20T13:00:31.601Z,22.08
2023-10-20T13:02:59.390Z,25.27
2023-10-20T13:05:28.116Z,22.38
2023-10-20T13:07:55.747Z,22.63
2023-10-20T13:10:23.408Z,27.03
2023-10-20T13:12:51.407Z,25.63
2023-10-20T13:15:22.858Z,25.27
2023-10-20T13:17:50.631Z,24.98
2023-10-20T13:20:19.731Z,21.73
2023-10-20T13:22:47.449Z,32.30
2023-10-20T13:25:15.600Z,28.65
2023-10-20T13:27:43.356Z,35.83
2023-10-20T13:30:11.520Z,29.67
2023-10-20T13:32:39.204Z,22.90
2023-10-20T13:35:07.052Z,30.27
2023-10-20T13:37:34.659Z,29.17
2023-10-20T13:40:02.909Z,27.23
2023-10-20T13:42:32.430Z,25.88
2023-10-20T13:45:00.205Z,27.23
2023-10-20T13:47:28.030Z,27.27
2023-10-20T13:49:55.989Z,24.43
2023-10-20T13:52:26.465Z,27.60
2023-10-20T13:54:54.374Z,27.83
2023-10-20T13:57:22.930Z,26.13
2023-10-20T13:59:50.755Z,26.63
2023-10-20T14:02:19.540Z,25.43
2023-10-20T14:04:47.258Z,29.60
2023-10-20T14:07:14.848Z,26.35
2023-10-20T14:09:42.451Z,28.38
2023-10-20T14:12:10.161Z,27.92
2023-10-20T14:14:37.882Z,24.98
2023-10-20T14:17:08.354Z,33.67
2023-10-20T14:19:36.334Z,32.13
2023-10-20T14:22:05.006Z,28.17
2023-10-20T14:24:32.695Z,27.55
2023-10-20T14:27:00.431Z,26.58
2023-10-20T14:29:28.337Z,25.30
2023-10-20T14:31:57.795Z,27.20
2023-10-20T14:34:25.557Z,36.72
2023-10-20T14:36:53.076Z,27.23
2023-10-20T14:39:20.754Z,30.10
2023-10-20T14:41:48.641Z,23.73
2023-10-20T14:44:16.523Z,25.20
2023-10-20T14:46:45.964Z,21.20
2023-10-20T14:49:15.588Z,30.42
2023-10-20T14:51:43.229Z,24.27
2023-10-20T14:54:10.934Z,24.07
2023-10-20T14:56:38.574Z,29.40
2023-10-20T14:59:07.212Z,23.88
2023-10-20T15:01:34.893Z,27.10
2023-10-20T15:04:22.202Z,27.65
2023-10-20T15:06:57.268Z,26.23
2023-10-20T15:09:25.205Z,22.87
2023-10-20T15:11:53.170Z,22.92
2023-10-20T15:14:20.873Z,29.25
2023-10-20T15:16:48.577Z,24.13
2023-10-20T15:19:16.191Z,27.83
2023-10-20T15:21:44.534Z,30.57
2023-10-20T15:24:12.352Z,25.27
2023-10-20T15:26:40.131Z,32.97
2023-10-20T15:29:07.838Z,31.77
2023-10-20T15:31:35.721Z,26.15
2023-10-20T15:34:04.442Z,25.17
2023-10-20T15:36:47.085Z,30.80
2023-10-20T15:39:16.175Z,32.15
2023-10-20T15:41:43.896Z,28.45
2023-10-20T15:44:11.670Z,31.48
2023-10-20T15:46:41.644Z,32.70
2023-10-20T15:49:10.194Z,35.30
2023-10-20T15:54:23.318Z,32.88
2023-10-20T15:56:53.843Z,30.48
2023-10-20T15:59:23.925Z,31.23
2023-10-20T16:02:02.000Z,33.63
2023-10-20T16:04:29.683Z,30.15
2023-10-20T16:06:58.493Z,31.13
2023-10-20T16:09:27.318Z,34.03
2023-10-20T16:11:55.008Z,33.10
2023-10-20T16:14:22.709Z,28.97
2023-10-20T16:16:50.402Z,33.30
2023-10-20T16:19:17.978Z,29.45
2023-10-20T16:21:45.646Z,33.63
2023-10-20T16:24:19.439Z,34.65
2023-10-20T16:26:49.569Z,30.20
2023-10-20T16:29:17.797Z,33.40
2023-10-20T16:31:45.657Z,33.13
2023-10-20T16:34:13.593Z,28.13
2023-10-20T16:36:41.581Z,33.42
2023-10-20T16:39:09.365Z,32.22
2023-10-20T16:41:37.102Z,30.30
2023-10-20T16:44:05.381Z,29.90
2023-10-20T16:46:33.130Z,36.63
2023-10-20T16:49:03.666Z,30.25
2023-10-20T16:51:31.676Z,34.85
2023-10-20T16:53:59.440Z,33.80
2023-10-20T16:56:28.301Z,29.52
2023-10-20T16:58:55.937Z,29.92
2023-10-20T17:01:27.688Z,29.02
2023-10-20T17:03:55.513Z,30.27
2023-10-20T17:06:23.262Z,28.73
2023-10-20T17:08:51.384Z,27.35
2023-10-20T17:11:19.027Z,28.38
2023-10-20T17:13:46.906Z,33.83
2023-10-20T17:16:14.719Z,35.20
2023-10-20T17:18:46.758Z,32.23
2023-10-20T17:21:17.227Z,31.30
2023-10-20T17:23:48.009Z,32.33
2023-10-20T17:26:15.819Z,29.75
2023-10-20T17:28:43.834Z,33.58
2023-10-20T17:31:15.439Z,36.72
2023-10-20T17:33:46.832Z,38.77
2023-10-20T17:36:25.123Z,28.73
2023-10-20T17:39:07.874Z,36.05
2023-10-20T17:41:35.745Z,39.78
2023-10-20T17:44:27.309Z,30.38
2023-10-20T17:46:55.158Z,34.73
2023-10-20T17:49:22.841Z,41.35
2023-10-20T17:51:51.272Z,38.78
2023-10-20T17:54:19.016Z,37.85
2023-10-20T17:56:46.724Z,54.17
2023-10-20T17:59:14.518Z,45.93
2023-10-20T18:01:42.190Z,41.35
2023-10-20T18:04:10.151Z,43.90
2023-10-20T18:06:37.926Z,39.38
2023-10-20T18:09:06.162Z,37.58
2023-10-20T18:11:34.057Z,36.50
2023-10-20T18:14:01.744Z,38.07
2023-10-20T18:16:30.823Z,39.58
2023-10-20T18:18:58.538Z,42.17
2023-10-20T18:21:26.539Z,42.65
2023-10-20T18:23:58.755Z,51.65
2023-10-20T18:26:26.579Z,47.20
2023-10-20T18:28:55.345Z,50.95
2023-10-20T18:31:23.882Z,42.05
2023-10-20T18:33:54.025Z,39.72
2023-10-20T18:36:22.416Z,40.03
2023-10-20T18:38:50.320Z,38.00
2023-10-20T18:41:22.448Z,47.00
2023-10-20T18:43:50.402Z,38.50
2023-10-20T18:46:21.412Z,44.38
2023-10-20T18:48:49.628Z,41.03
2023-10-20T18:51:20.786Z,44.97
2023-10-20T18:53:50.418Z,45.17
2023-10-20T18:56:18.203Z,47.10
2023-10-20T18:58:47.638Z,42.55
2023-10-20T19:01:16.157Z,44.30
2023-10-20T19:03:44.141Z,40.72
2023-10-20T19:06:14.210Z,50.17
2023-10-20T19:08:42.027Z,36.80
2023-10-20T19:11:11.840Z,29.40
2023-10-20T19:13:39.881Z,38.15
2023-10-20T19:16:09.056Z,37.80
2023-10-20T19:18:36.983Z,36.80
2023-10-20T19:21:08.086Z,33.17
2023-10-20T19:23:39.118Z,36.95
2023-10-20T19:26:09.217Z,43.25
2023-10-20T19:28:39.841Z,35.15
2023-10-20T19:31:11.009Z,40.33
2023-10-20T19:33:39.496Z,36.53
2023-10-20T19:36:09.165Z,40.35
2023-10-20T19:38:37.063Z,33.30
2023-10-20T19:41:04.903Z,44.45
2023-10-20T19:43:32.562Z,47.50
2023-10-20T19:46:02.678Z,39.80
2023-10-20T19:48:30.453Z,43.20
2023-10-20T19:51:01.022Z,47.65
2023-10-20T19:53:28.783Z,45.40
2023-10-20T19:55:57.506Z,40.93
2023-10-20T19:58:25.143Z,52.17
2023-10-20T20:00:52.886Z,41.83
2023-10-20T20:03:20.603Z,32.75
2023-10-20T20:05:48.598Z,46.20
2023-10-20T20:08:16.274Z,42.20
2023-10-20T20:10:44.184Z,41.53
2023-10-20T20:13:11.910Z,45.67
2023-10-20T20:15:40.551Z,42.72
2023-10-20T20:18:08.273Z,38.20
2023-10-20T20:20:36.021Z,46.93
2023-10-20T20:23:03.784Z,41.10
2023-10-20T20:25:31.464Z,49.10
2023-10-20T20:27:59.122Z,44.05
2023-10-20T20:30:26.803Z,43.10
2023-10-20T20:32:54.642Z,49.37
2023-10-20T20:35:23.315Z,39.08
2023-10-20T20:37:53.284Z,41.22
2023-10-20T20:40:23.288Z,38.25
2023-10-20T20:42:54.774Z,41.85
2023-10-20T20:45:22.423Z,40.27
2023-10-20T20:48:03.517Z,46.88
2023-10-20T20:50:33.808Z,39.95
2023-10-20T20:53:05.836Z,45.25
2023-10-20T20:55:37.202Z,48.28
2023-10-20T20:58:04.992Z,45.07
2023-10-20T21:00:32.720Z,49.33
2023-10-20T21:03:00.996Z,43.60
2023-10-20T21:05:28.811Z,47.30
2023-10-20T21:07:56.586Z,38.47
2023-10-20T21:10:24.353Z,48.05
2023-10-20T21:12:54.628Z,35.33
2023-10-20T21:15:22.304Z,40.67
2023-10-20T21:17:50.021Z,41.83
2023-10-20T21:20:17.813Z,38.25
2023-10-20T21:22:45.495Z,48.95
2023-10-20T21:25:26.461Z,41.73
2023-10-20T21:27:55.493Z,43.55
2023-10-20T21:30:24.356Z,48.45
2023-10-20T21:32:53.503Z,39.75
2023-10-20T21:35:23.964Z,37.58
2023-10-20T21:37:51.661Z,36.13
2023-10-20T21:40:19.237Z,39.55
2023-10-20T21:42:46.882Z,46.88
2023-10-20T21:45:22.100Z,38.22
2023-10-20T21:47:50.413Z,42.10
2023-10-20T21:50:18.244Z,45.73
2023-10-20T21:52:46.680Z,38.63
2023-10-20T21:55:14.292Z,39.88
2023-10-20T21:57:43.344Z,44.90
2023-10-20T22:00:17.661Z,46.33
2023-10-20T22:02:45.511Z,46.67
2023-10-20T22:05:16.301Z,45.87
2023-10-20T22:07:44.770Z,42.83
2023-10-20T22:10:12.836Z,40.67
2023-10-20T22:12:40.610Z,49.50
2023-10-20T22:15:09.203Z,39.58
2023-10-20T22:17:37.872Z,37.73
2023-10-20T22:20:06.702Z,51.85
2023-10-20T22:22:34.504Z,47.03
2023-10-20T22:25:02.231Z,48.35
2023-10-20T22:27:30.670Z,51.15
2023-10-20T22:29:59.437Z,46.77
2023-10-20T22:32:29.688Z,46.08
2023-10-20T22:35:02.727Z,49.08
2023-10-20T22:37:51.062Z,40.08
2023-10-20T22:40:18.964Z,44.53
2023-10-20T22:42:47.708Z,45.87
2023-10-20T22:45:15.377Z,57.33
2023-10-20T22:47:44.346Z,43.50
2023-10-20T22:50:13.068Z,45.90
2023-10-20T22:52:40.745Z,40.63
2023-10-20T22:55:12.334Z,38.00
2023-10-20T22:57:39.960Z,44.50
2023-10-20T23:00:12.150Z,44.55
2023-10-20T23:02:41.573Z,37.40
2023-10-20T23:05:10.688Z,43.75
2023-10-20T23:07:38.564Z,41.83
2023-10-20T23:10:06.807Z,34.47
2023-10-20T23:12:36.626Z,38.30
2023-10-20T23:15:07.839Z,35.08
2023-10-20T23:17:35.790Z,31.95
2023-10-20T23:20:04.794Z,34.93
2023-10-20T23:22:33.532Z,37.45
2023-10-20T23:25:01.197Z,32.53
2023-10-20T23:27:29.004Z,32.65
2023-10-20T23:29:56.786Z,35.35
2023-10-20T23:32:24.441Z,41.57
2023-10-20T23:34:55.209Z,28.50
2023-10-20T23:37:23.094Z,32.78
2023-10-20T23:39:52.137Z,40.42
2023-10-20T23:42:19.876Z,35.67
2023-10-20T23:44:47.710Z,37.70
2023-10-20T23:47:15.405Z,42.00
2023-10-20T23:49:43.297Z,43.13
2023-10-20T23:52:11.051Z,33.13
2023-10-20T23:54:38.761Z,35.63
2023-10-20T23:57:06.447Z,43.20
2023-10-20T23:59:34.245Z,36.78
